Pays
Station

 

Conditions  météo  pour  Mitu  -  Colombie    Colombie

  
24 °C
    
 
 

METAR pour Mitu :

SKMU 131400Z 29004KT 9999 SCT030 24/22 A3011

 

Voici le bulletin pour Mitu - Colombie.
 
Le bulletin a été fait il y a 141 heures et 27 minutes, à 14:00 UTC .
Le vent soufflait à la vitesse de 2.1 mètres par seconde de Ouest/Nord-ouest (290°).
 
La température était de 24 °C, avec un point de rosée à 22 °C.
La température ressentie était de 23 °C.
 
La pression atmosphérique était de 1020 hPa.
L'humidité relative était de 88.6%.
 
Il y avait 3 à 4/8ème de nébulosité à une hauteur de 914 mètres.
 
La visibilité globale était de supérieure à 10 kilomètres.
 

 
 
 

Pays :   A   B   C   D   E   F   G   H   I   J   K   L   M   N   O   P   Q   R   S   T   U   V   W   Y   Z

 

Partenaires :  Info Météo avec Met'info
Météo Marine avec MeteoMarine.net
Infos Site  |  Infos Légales  |  Crédits  |  Confidentialité
Contactez-nous  |  Ajouter aux favoris
© 2013-2018 METAR - Tous droits réservés